Time;durP1;ratioP1;P1;durP2;ratioP2;P2;SDS_P1;SDS_P2;PMS_P1;PMS_P2;Temp;Humidity;BMP_temperature;BMP_pressure;BME280_temperature;BME280_humidity;BME280_pressure;Samples;Min_cycle;Max_cycle;Signal;HPM_P1;HPM_P2
2023/06/03 00:00:23;;;;;;;2.43;1.90;;;;;;;12.20;72.82;102014.25;5032965;28;20029;-84
2023/06/03 00:02:52;;;;;;;3.10;2.17;;;;;;;12.24;73.39;102012.50;5031849;28;20111;-83
2023/06/03 00:05:20;;;;;;;4.28;2.40;;;;;;;12.24;73.33;102012.50;5032397;28;20045;-83
2023/06/03 00:07:49;;;;;;;3.22;2.13;;;;;;;12.24;73.37;102012.50;5032055;28;20021;-84
2023/06/03 00:10:14;;;;;;;2.97;2.22;;;;;;;12.22;73.35;102016.84;5031731;28;20034;-83
2023/06/03 00:12:40;;;;;;;3.53;2.10;;;;;;;12.18;73.93;102014.25;5032236;28;20036;-84
2023/06/03 00:15:07;;;;;;;3.33;2.20;;;;;;;12.20;73.44;102024.69;5032471;28;20062;-83
2023/06/03 00:17:33;;;;;;;2.28;2.08;;;;;;;12.16;74.43;102015.97;5030944;28;20052;-84
2023/06/03 00:20:06;;;;;;;2.67;2.00;;;;;;;12.13;73.76;102017.72;5032573;28;20074;-83
2023/06/03 00:22:33;;;;;;;2.85;2.13;;;;;;;12.11;73.60;102017.75;5031933;28;20029;-83
2023/06/03 00:24:59;;;;;;;3.28;2.28;;;;;;;12.08;73.80;102019.50;5031511;28;20029;-84
2023/06/03 00:27:24;;;;;;;2.97;2.23;;;;;;;12.07;73.70;102021.22;5032606;28;20025;-83
2023/06/03 00:29:49;;;;;;;2.53;1.90;;;;;;;12.07;74.38;102021.22;5031006;28;20900;-83
2023/06/03 00:32:14;;;;;;;3.40;2.27;;;;;;;12.02;74.09;102018.63;5031149;28;20034;-83
2023/06/03 00:34:40;;;;;;;3.47;2.10;;;;;;;12.00;74.22;102012.56;5031934;28;20126;-83
2023/06/03 00:37:05;;;;;;;3.87;2.20;;;;;;;12.01;74.23;102022.09;5030807;28;20060;-83
2023/06/03 00:39:30;;;;;;;2.97;2.20;;;;;;;11.98;74.42;102016.03;5032192;28;20255;-83
2023/06/03 00:41:57;;;;;;;3.90;2.00;;;;;;;11.96;74.11;102013.44;5031992;28;20029;-83
2023/06/03 00:44:22;;;;;;;2.35;2.03;;;;;;;11.90;74.57;102006.50;5031553;28;20030;-83
2023/06/03 00:46:48;;;;;;;2.57;2.20;;;;;;;11.89;74.35;102014.28;5031592;28;20033;-84
2023/06/03 00:49:13;;;;;;;2.40;2.20;;;;;;;11.86;74.24;102006.50;5032072;28;20033;-83
2023/06/03 00:51:38;;;;;;;3.80;2.30;;;;;;;11.88;74.54;102016.03;5034308;28;20029;-83
2023/06/03 00:54:04;;;;;;;3.10;2.23;;;;;;;11.86;74.38;102012.56;5035933;28;20075;-83
2023/06/03 00:56:34;;;;;;;2.37;2.17;;;;;;;11.83;74.82;102011.72;5035495;28;20022;-83
2023/06/03 00:58:59;;;;;;;2.30;2.10;;;;;;;11.77;74.83;102007.38;5035042;28;20021;-83
2023/06/03 01:01:25;;;;;;;3.07;2.40;;;;;;;11.77;74.51;102009.09;5035645;28;20112;-83
2023/06/03 01:03:50;;;;;;;3.53;2.40;;;;;;;11.75;75.11;102009.13;5035439;28;20083;-83
2023/06/03 01:06:22;;;;;;;2.97;2.40;;;;;;;11.73;74.64;102011.72;5034896;28;20116;-83
2023/06/03 01:09:05;;;;;;;3.47;2.13;;;;;;;11.70;75.70;102014.31;5034995;28;20080;-83
2023/06/03 01:11:52;;;;;;;4.03;2.20;;;;;;;11.66;76.83;102012.59;5034797;28;20042;-83
2023/06/03 01:14:22;;;;;;;3.42;2.28;;;;;;;11.65;75.99;102012.59;5035479;28;20467;-83
2023/06/03 01:16:50;;;;;;;2.38;2.00;;;;;;;11.63;75.53;102003.94;5016899;28;20512;-83
2023/06/03 01:19:49;;;;;;;2.30;1.98;;;;;;;11.62;75.88;102004.78;5034830;28;20116;-83
2023/06/03 01:22:20;;;;;;;3.75;2.10;;;;;;;11.53;75.82;102005.69;5030001;28;20040;-83
2023/06/03 01:24:50;;;;;;;1.95;1.83;;;;;;;11.57;75.70;102015.19;5034885;28;20390;-83
2023/06/03 01:27:20;;;;;;;2.53;2.10;;;;;;;11.55;75.51;102009.13;5034155;28;20501;-83
2023/06/03 01:29:50;;;;;;;2.33;2.10;;;;;;;11.54;75.51;102010.03;5035389;28;20021;-83
2023/06/03 01:32:16;;;;;;;2.08;1.90;;;;;;;11.42;75.96;101997.88;5034848;28;20022;-83
2023/06/03 01:34:42;;;;;;;2.08;1.75;;;;;;;11.49;75.91;102007.41;5033709;28;20496;-83
2023/06/03 01:37:12;;;;;;;2.20;1.90;;;;;;;11.51;75.96;102005.66;5037563;22;20045;-83
2023/06/03 01:39:42;;;;;;;1.92;1.70;;;;;;;11.46;75.43;102004.81;5014665;28;20490;-83
2023/06/03 01:42:08;;;;;;;2.00;1.80;;;;;;;11.50;76.09;102014.34;5014465;28;20025;-83
2023/06/03 01:44:34;;;;;;;2.05;1.88;;;;;;;11.54;75.67;102017.81;5014679;28;20075;-83
2023/06/03 01:46:59;;;;;;;2.20;1.80;;;;;;;11.53;75.67;102011.75;5015104;28;20113;-83
2023/06/03 01:49:24;;;;;;;2.50;1.80;;;;;;;11.53;75.43;102013.50;5014679;28;20021;-83
2023/06/03 01:51:50;;;;;;;5.03;2.80;;;;;;;11.47;77.28;102008.28;5014549;28;20033;-84
2023/06/03 01:54:18;;;;;;;3.50;2.33;;;;;;;11.42;76.59;102009.16;5014198;28;20026;-83
2023/06/03 01:56:43;;;;;;;2.75;2.30;;;;;;;11.48;76.30;102023.00;5014696;28;20036;-83
2023/06/03 01:59:08;;;;;;;2.20;2.00;;;;;;;11.47;76.38;102027.34;5015037;28;20433;-84
2023/06/03 02:01:36;;;;;;;3.70;2.27;;;;;;;11.46;76.91;102025.63;5012774;28;20053;-83
2023/06/03 02:04:01;;;;;;;2.58;1.90;;;;;;;11.44;76.58;102016.94;5019093;22;20019;-83
2023/06/03 02:06:27;;;;;;;1.93;1.70;;;;;;;11.40;76.72;102015.22;4995052;28;20394;-83
2023/06/03 02:08:52;;;;;;;2.57;2.00;;;;;;;11.36;76.57;102009.16;4993857;28;20057;-83
2023/06/03 02:11:19;;;;;;;2.73;2.30;;;;;;;11.37;78.54;102016.09;4994632;28;20031;-83
2023/06/03 02:13:44;;;;;;;2.95;2.13;;;;;;;11.33;77.51;102016.94;4994898;28;20042;-83
2023/06/03 02:16:28;;;;;;;7.03;2.80;;;;;;;11.30;78.13;102006.56;5006146;28;20021;-83
2023/06/03 02:18:54;;;;;;;4.25;2.50;;;;;;;11.25;78.87;102003.09;5014133;28;20088;-83
2023/06/03 02:21:20;;;;;;;4.82;2.70;;;;;;;11.28;77.96;102009.13;5014320;28;20025;-84
2023/06/03 02:23:45;;;;;;;3.47;2.50;;;;;;;11.28;79.05;102010.88;5013146;28;20026;-83
2023/06/03 02:26:13;;;;;;;3.40;2.40;;;;;;;11.25;78.01;102009.16;5014516;28;20018;-83
2023/06/03 02:28:39;;;;;;;2.50;2.10;;;;;;;11.28;77.11;102003.09;5014104;28;20024;-83
2023/06/03 02:31:04;;;;;;;3.73;2.40;;;;;;;11.22;77.12;102003.94;5013402;28;20105;-84
2023/06/03 02:33:29;;;;;;;2.10;1.90;;;;;;;11.27;77.36;102003.94;4997878;28;20033;-84
2023/06/03 02:35:55;;;;;;;1.90;1.80;;;;;;;11.27;77.10;102006.56;4994605;28;20026;-83
2023/06/03 02:38:21;;;;;;;5.50;2.87;;;;;;;11.25;80.73;102016.97;4993939;28;20077;-83
2023/06/03 02:40:49;;;;;;;7.43;3.63;;;;;;;11.28;79.84;102008.28;4994386;28;20019;-83
2023/06/03 02:43:14;;;;;;;8.30;3.72;;;;;;;11.27;80.33;102006.56;4993875;28;20030;-83
2023/06/03 02:45:39;;;;;;;10.93;4.73;;;;;;;11.23;81.04;102004.81;4993339;28;20026;-83
2023/06/03 02:48:05;;;;;;;13.73;5.97;;;;;;;11.24;82.50;102014.34;4994122;28;20117;-83
2023/06/03 02:50:30;;;;;;;12.40;5.50;;;;;;;11.28;81.78;102005.69;4993294;28;20531;-83
2023/06/03 02:52:58;;;;;;;13.30;6.20;;;;;;;11.30;82.23;102008.28;4994125;28;20058;-83
2023/06/03 02:55:23;;;;;;;10.90;5.28;;;;;;;11.34;81.20;102008.28;4994207;28;20030;-83
2023/06/03 02:57:49;;;;;;;9.17;4.93;;;;;;;11.32;81.34;102010.00;4994008;28;20027;-83
2023/06/03 03:00:15;;;;;;;11.90;5.57;;;;;;;11.28;81.78;102009.13;4994244;28;20031;-83
2023/06/03 03:02:40;;;;;;;13.90;6.57;;;;;;;11.26;81.77;102005.66;5002861;28;20028;-83
2023/06/03 03:05:06;;;;;;;13.03;5.10;;;;;;;11.29;80.81;102004.81;5012430;28;20129;-83
2023/06/03 03:07:32;;;;;;;11.27;5.10;;;;;;;11.26;81.24;102003.06;5013270;28;20536;-83
2023/06/03 03:09:58;;;;;;;13.20;5.30;;;;;;;11.28;81.50;102009.13;5013577;28;20284;-83
2023/06/03 03:12:23;;;;;;;11.70;5.03;;;;;;;11.27;81.28;102007.41;5012956;28;20030;-83
2023/06/03 03:14:48;;;;;;;7.70;4.30;;;;;;;11.27;80.30;102012.59;5012242;28;20040;-83
2023/06/03 03:17:14;;;;;;;9.57;5.17;;;;;;;11.21;81.17;102001.34;5013486;28;20103;-83
2023/06/03 03:19:42;;;;;;;12.83;5.33;;;;;;;11.21;82.08;102012.63;5012244;28;20034;-83
2023/06/03 03:22:08;;;;;;;9.52;4.95;;;;;;;11.19;81.80;102018.69;5013411;28;20022;-83
2023/06/03 03:24:33;;;;;;;10.13;5.23;;;;;;;11.13;81.36;102006.56;5012870;28;20566;-83
2023/06/03 03:26:59;;;;;;;10.83;5.40;;;;;;;11.10;81.38;102009.13;5012946;28;20021;-84
2023/06/03 03:29:33;;;;;;;10.70;4.88;;;;;;;11.15;80.93;102020.38;5013300;28;20108;-83
2023/06/03 03:32:06;;;;;;;11.52;5.40;;;;;;;11.08;81.46;102009.16;5008977;28;20085;-83
2023/06/03 03:34:31;;;;;;;12.27;5.47;;;;;;;11.09;81.22;102015.19;4992472;28;20053;-83
2023/06/03 03:36:58;;;;;;;10.23;4.97;;;;;;;11.15;81.32;102024.72;4993311;28;20034;-83
2023/06/03 03:39:23;;;;;;;9.82;4.82;;;;;;;11.11;80.86;102019.50;4993519;28;20390;-83
2023/06/03 03:41:48;;;;;;;10.57;4.90;;;;;;;11.14;81.32;102026.47;4992328;28;20109;-83
2023/06/03 03:44:14;;;;;;;10.77;5.43;;;;;;;11.12;81.34;102025.59;4993375;28;20030;-83
2023/06/03 03:46:57;;;;;;;12.00;4.40;;;;;;;11.15;80.34;102030.78;4992528;28;20093;-83
2023/06/03 03:49:28;;;;;;;9.50;4.43;;;;;;;11.16;80.23;102029.91;4993575;28;20030;-84
2023/06/03 03:51:54;;;;;;;8.30;4.70;;;;;;;11.14;81.04;102026.47;4993127;28;20033;-84
2023/06/03 03:54:25;;;;;;;10.32;5.03;;;;;;;11.12;80.55;102028.19;4992723;28;20023;-84
2023/06/03 03:56:57;;;;;;;8.23;4.60;;;;;;;11.09;81.11;102023.00;4992947;28;20045;-84
2023/06/03 03:59:26;;;;;;;11.48;4.82;;;;;;;11.14;80.90;102029.06;4992987;28;20510;-84
2023/06/03 04:01:51;;;;;;;8.32;4.13;;;;;;;11.07;80.06;102016.91;4993900;28;20058;-83
2023/06/03 04:05:03;;;;;;;12.87;5.80;;;;;;;11.04;81.00;102022.09;5011626;28;20086;-84
2023/06/03 04:07:46;;;;;;;11.85;5.22;;;;;;;11.11;80.76;102032.50;5007208;28;20052;-83
2023/06/03 04:10:15;;;;;;;9.60;4.70;;;;;;;11.13;80.15;102028.19;5012740;28;20471;-84
2023/06/03 04:12:40;;;;;;;12.25;5.28;;;;;;;11.18;80.07;102028.19;5012555;28;20109;-84
2023/06/03 04:15:24;;;;;;;10.27;5.03;;;;;;;11.12;80.06;102023.84;5012127;28;20141;-84
2023/06/03 04:17:50;;;;;;;12.80;5.82;;;;;;;11.11;79.98;102018.66;4997149;28;20042;-83
2023/06/03 04:20:42;;;;;;;13.13;5.63;;;;;;;11.21;79.84;102032.50;4993146;28;20391;-84
2023/06/03 04:23:14;;;;;;;11.95;5.22;;;;;;;11.21;79.75;102033.41;4992581;28;20030;-83
2023/06/03 04:25:41;;;;;;;12.95;5.97;;;;;;;11.20;79.59;102034.25;4994500;28;20374;-84
2023/06/03 04:28:07;;;;;;;13.18;5.78;;;;;;;11.18;79.40;102038.59;4997214;28;20153;-84
2023/06/03 04:30:36;;;;;;;12.73;6.00;;;;;;;11.22;79.24;102035.13;4996027;28;20042;-83
2023/06/03 04:33:02;;;;;;;10.45;4.90;;;;;;;11.27;79.30;102040.34;4996981;28;20027;-83
2023/06/03 04:35:27;;;;;;;11.53;5.27;;;;;;;11.28;78.93;102040.31;4996684;28;20089;-85
2023/06/03 04:37:52;;;;;;;9.97;5.10;;;;;;;11.36;79.03;102049.88;4995960;28;20037;-84
2023/06/03 04:40:17;;;;;;;11.00;5.43;;;;;;;11.34;78.58;102038.63;4996492;28;20065;-84
2023/06/03 04:42:43;;;;;;;11.10;4.80;;;;;;;11.42;78.44;102039.47;4996438;28;20029;-83
2023/06/03 04:45:12;;;;;;;10.23;4.80;;;;;;;11.44;78.12;102036.00;4996095;28;20121;-83
2023/06/03 04:47:41;;;;;;;11.75;5.07;;;;;;;11.48;78.12;102049.91;5008890;28;20048;-83
2023/06/03 04:50:08;;;;;;;9.63;4.93;;;;;;;11.50;77.61;102036.88;5015159;28;20029;-84
2023/06/03 04:52:34;;;;;;;;;;;;;;;11.52;76.71;102049.00;5015882;28;20076;-83
2023/06/03 04:54:59;;;;;;;11.43;5.40;;;;;;;11.56;76.60;102042.94;5016237;28;19967;-84
2023/06/03 04:57:27;;;;;;;13.00;5.80;;;;;;;11.57;76.40;102036.88;5014958;28;20121;-83
2023/06/03 04:59:53;;;;;;;13.05;5.40;;;;;;;11.63;75.30;102043.81;5015434;28;20027;-83
2023/06/03 05:02:20;;;;;;;11.77;5.03;;;;;;;11.69;75.54;102050.75;5015708;28;20040;-85
2023/06/03 05:04:46;;;;;;;8.60;4.70;;;;;;;11.71;74.97;102049.00;5014930;28;20048;-83
2023/06/03 05:07:18;;;;;;;9.43;4.70;;;;;;;11.77;75.20;102050.72;5014705;28;20119;-83
2023/06/03 05:09:43;;;;;;;10.18;4.70;;;;;;;11.83;74.14;102053.34;5015492;28;20479;-84
2023/06/03 05:12:09;;;;;;;9.83;5.03;;;;;;;11.85;73.00;102055.06;5014745;28;20121;-83
2023/06/03 05:14:35;;;;;;;9.65;4.80;;;;;;;11.89;73.54;102046.38;5016099;28;20018;-83
2023/06/03 05:17:00;;;;;;;10.53;4.87;;;;;;;11.94;72.38;102043.78;5008745;28;20030;-84
2023/06/03 05:19:44;;;;;;;10.73;4.80;;;;;;;11.99;72.32;102043.81;4994953;28;20027;-83
2023/06/03 05:22:09;;;;;;;11.15;4.80;;;;;;;11.95;71.51;102029.91;4996116;28;20022;-83
2023/06/03 05:24:34;;;;;;;10.70;5.10;;;;;;;11.98;70.73;102034.25;4995587;28;20018;-83
2023/06/03 05:27:17;;;;;;;10.00;4.50;;;;;;;12.15;71.08;102053.31;4995415;28;20514;-83
2023/06/03 05:29:45;;;;;;;9.02;4.57;;;;;;;12.22;70.66;102055.88;4995242;28;20030;-83
2023/06/03 05:32:16;;;;;;;5.55;3.60;;;;;;;12.28;70.83;102056.75;4995323;28;20026;-83
2023/06/03 05:34:41;;;;;;;7.97;3.80;;;;;;;12.29;70.04;102045.47;4995347;28;20030;-80
2023/06/03 05:37:06;;;;;;;10.07;4.50;;;;;;;12.40;69.67;102050.63;4994469;28;20026;-81
2023/06/03 05:39:38;;;;;;;6.07;3.80;;;;;;;12.44;70.38;102049.75;4994452;28;20104;-82
2023/06/03 05:42:06;;;;;;;7.90;4.10;;;;;;;12.52;69.16;102053.19;4995759;28;20049;-81
2023/06/03 05:44:31;;;;;;;9.13;4.07;;;;;;;12.59;69.25;102055.78;4994910;28;20033;-83
2023/06/03 05:46:57;;;;;;;11.07;4.53;;;;;;;12.59;67.53;102054.03;5001700;28;20033;-83
2023/06/03 05:49:24;;;;;;;11.27;4.97;;;;;;;12.62;66.77;102056.63;5015048;28;20057;-86
2023/06/03 05:51:53;;;;;;;9.50;4.40;;;;;;;12.67;66.24;102049.63;4997088;28;20113;-83
2023/06/03 05:54:18;;;;;;;9.07;4.38;;;;;;;12.74;65.53;102049.63;5004060;28;20029;-83
2023/06/03 05:56:43;;;;;;;10.10;4.57;;;;;;;12.72;65.06;102044.41;5014272;28;20029;-83
2023/06/03 05:59:09;;;;;;;6.40;3.80;;;;;;;12.83;64.95;102050.41;5015039;28;20471;-83
2023/06/03 06:01:35;;;;;;;8.77;4.30;;;;;;;12.87;65.35;102051.28;5013609;28;20029;-83
2023/06/03 06:04:00;;;;;;;9.70;4.30;;;;;;;13.00;63.85;102052.06;5014677;28;20026;-82
2023/06/03 06:06:37;;;;;;;9.87;3.90;;;;;;;13.23;65.73;102045.84;5014442;28;20044;-83
2023/06/03 06:09:02;;;;;;;7.57;4.00;;;;;;;14.19;59.46;102045.88;5014042;28;20026;-82
2023/06/03 06:11:28;;;;;;;7.97;3.50;;;;;;;15.65;58.53;102049.09;5014575;28;20387;-83
2023/06/03 06:13:53;;;;;;;8.73;3.83;;;;;;;17.11;49.65;102060.16;5014020;28;20017;-82
2023/06/03 06:16:18;;;;;;;8.53;3.50;;;;;;;17.20;52.96;102053.00;5011119;28;20026;-84
2023/06/03 06:18:44;;;;;;;8.73;3.90;;;;;;;16.75;51.31;102053.97;4994468;28;20022;-83
2023/06/03 06:21:09;;;;;;;7.60;3.73;;;;;;;16.32;51.30;102055.75;4994889;28;20174;-83
2023/06/03 06:23:35;;;;;;;5.70;3.43;;;;;;;16.14;51.18;102060.44;4993840;28;20022;-82
2023/06/03 06:26:00;;;;;;;6.18;3.42;;;;;;;16.04;54.77;102064.97;4994699;28;20052;-83
2023/06/03 06:28:27;;;;;;;5.70;2.90;;;;;;;16.21;55.08;102061.19;4994191;28;20471;-83
2023/06/03 06:30:54;;;;;;;5.72;3.42;;;;;;;16.49;51.05;102074.59;4994649;28;20496;-83
2023/06/03 06:33:19;;;;;;;6.57;3.40;;;;;;;16.46;50.50;102077.28;4994500;28;20026;-83
2023/06/03 06:35:45;;;;;;;6.93;3.43;;;;;;;16.70;50.29;102072.41;4993411;28;20444;-83
2023/06/03 06:38:11;;;;;;;7.27;3.40;;;;;;;16.65;48.48;102069.03;4994531;28;20060;-82
2023/06/03 06:40:40;;;;;;;7.90;3.42;;;;;;;16.41;49.89;102073.00;4994156;28;20538;-83
2023/06/03 06:43:07;;;;;;;7.57;3.10;;;;;;;16.45;50.78;102072.91;4993810;28;20109;-82
2023/06/03 06:45:36;;;;;;;6.93;3.45;;;;;;;16.45;48.95;102072.91;4994390;28;20037;-82
2023/06/03 06:48:10;;;;;;;6.03;3.10;;;;;;;16.59;48.82;102069.16;5009938;28;20058;-82
2023/06/03 06:50:50;;;;;;;7.32;3.33;;;;;;;16.79;50.13;102068.75;5012622;28;20474;-82
2023/06/03 06:53:20;;;;;;;5.80;3.25;;;;;;;16.54;47.21;102066.63;5013772;28;20026;-82
2023/06/03 06:55:56;;;;;;;5.88;3.08;;;;;;;16.42;49.83;102067.75;5013391;28;20026;-81
2023/06/03 06:58:24;;;;;;;5.68;3.40;;;;;;;16.50;48.19;102065.84;5013316;28;20494;-81
2023/06/03 07:00:50;;;;;;;10.15;3.20;;;;;;;16.59;49.32;102071.78;5013618;28;20041;-82
2023/06/03 07:03:16;;;;;;;4.83;2.77;;;;;;;16.79;47.91;102071.34;5013686;28;20026;-83
2023/06/03 07:05:42;;;;;;;5.82;2.90;;;;;;;16.90;48.74;102073.72;5012412;28;20050;-84
2023/06/03 07:08:08;;;;;;;5.30;2.80;;;;;;;16.96;46.19;102063.16;5013470;28;20041;-82
2023/06/03 07:10:49;;;;;;;6.23;2.90;;;;;;;16.93;47.37;102071.03;5012975;28;20520;-83
2023/06/03 07:13:17;;;;;;;7.40;3.00;;;;;;;16.82;46.18;102068.69;5013491;28;20017;-86
2023/06/03 07:15:44;;;;;;;7.82;3.00;;;;;;;16.73;45.21;102069.72;5013383;28;20026;-83
2023/06/03 07:18:10;;;;;;;;;;;;;;;16.68;46.50;102076.81;4996781;28;20057;-83
2023/06/03 07:20:42;;;;;;;8.45;2.88;;;;;;;16.64;44.37;102057.69;4993327;28;19917;-82
2023/06/03 07:23:10;;;;;;;5.38;2.80;;;;;;;16.74;45.98;102063.59;4993784;28;20394;-83
2023/06/03 07:25:42;;;;;;;6.38;2.75;;;;;;;16.81;45.92;102067.78;4992277;28;20497;-84
2023/06/03 07:28:10;;;;;;;7.00;2.70;;;;;;;17.09;46.51;102064.59;4993871;28;20023;-83
2023/06/03 07:30:36;;;;;;;4.55;2.60;;;;;;;17.20;46.66;102063.47;4993455;28;20026;-83
2023/06/03 07:33:04;;;;;;;6.35;2.70;;;;;;;17.26;43.69;102073.81;4992898;28;20109;-83
2023/06/03 07:35:29;;;;;;;5.97;2.60;;;;;;;17.36;43.60;102070.06;4993491;28;20105;-83
2023/06/03 07:37:55;;;;;;;5.60;2.80;;;;;;;17.47;43.96;102066.31;4993395;28;20176;-82
2023/06/03 07:40:34;;;;;;;5.35;2.53;;;;;;;17.41;43.44;102067.34;4994022;28;20022;-84
2023/06/03 07:42:59;;;;;;;6.13;2.85;;;;;;;17.03;41.90;102077.84;4993219;28;20018;-83
2023/06/03 07:45:26;;;;;;;5.70;2.50;;;;;;;16.98;41.05;102070.06;4992866;28;20060;-83
2023/06/03 07:47:51;;;;;;;;;;;;;;;16.82;42.35;102072.16;5006735;28;20033;-83
2023/06/03 07:50:28;;;;;;;4.73;2.60;;;;;;;17.03;42.21;102071.75;5012922;28;19976;-83
2023/06/03 07:53:04;;;;;;;5.25;2.50;;;;;;;17.16;41.02;102067.94;4992669;28;20161;-83
2023/06/03 07:55:44;;;;;;;6.97;2.40;;;;;;;17.43;43.20;102071.66;4973944;28;20034;-83
2023/06/03 07:58:10;;;;;;;4.93;2.28;;;;;;;17.64;40.18;102072.03;4973866;28;20475;-82
2023/06/03 08:00:42;;;;;;;5.13;2.58;;;;;;;17.67;40.34;102078.94;4972112;28;20435;-81
2023/06/03 08:03:08;;;;;;;4.85;2.20;;;;;;;17.79;40.29;102078.63;4973832;28;20031;-88
2023/06/03 08:05:35;;;;;;;3.47;2.20;;;;;;;17.80;39.97;102079.47;4973669;28;20054;-83
2023/06/03 08:08:05;;;;;;;6.63;2.30;;;;;;;17.67;39.16;102079.84;4973355;28;20034;-82
2023/06/03 08:10:33;;;;;;;7.63;2.65;;;;;;;17.84;40.68;102068.91;4973432;28;20464;-83
2023/06/03 08:13:00;;;;;;;3.70;2.28;;;;;;;18.11;38.88;102079.56;4973890;28;20106;-82
2023/06/03 08:15:30;;;;;;;5.38;2.42;;;;;;;17.75;37.21;102076.97;4973077;28;20026;-84
2023/06/03 08:18:05;;;;;;;4.25;2.28;;;;;;;17.87;37.33;102073.19;4989449;28;20093;-83
2023/06/03 08:20:33;;;;;;;4.53;2.00;;;;;;;17.99;37.64;102075.53;4992624;28;20033;-83
2023/06/03 08:22:58;;;;;;;4.63;2.20;;;;;;;18.18;37.74;102059.25;4992439;28;20076;-83
2023/06/03 08:25:23;;;;;;;4.97;2.13;;;;;;;18.40;36.83;102066.53;4993121;28;20463;-83
2023/06/03 08:27:49;;;;;;;5.43;2.20;;;;;;;18.31;35.11;102071.16;4992552;28;20054;-84
2023/06/03 08:30:16;;;;;;;3.95;2.00;;;;;;;18.36;34.85;102066.59;4992127;28;20105;-83
2023/06/03 08:32:43;;;;;;;4.57;2.13;;;;;;;18.34;35.30;102059.69;4992917;28;20488;-83
2023/06/03 08:35:12;;;;;;;3.22;2.00;;;;;;;18.58;35.81;102065.97;4992175;28;20022;-83
2023/06/03 08:37:38;;;;;;;4.90;1.92;;;;;;;18.60;34.44;102072.06;4992524;28;20026;-84
2023/06/03 08:40:08;;;;;;;4.20;2.10;;;;;;;18.41;34.20;102068.25;4992982;28;20019;-82
2023/06/03 08:42:39;;;;;;;4.10;2.20;;;;;;;18.39;34.36;102076.19;4991955;28;20030;-83
2023/06/03 08:45:12;;;;;;;3.92;2.00;;;;;;;18.59;35.05;102067.69;4993262;28;20431;-83
2023/06/03 08:47:57;;;;;;;5.28;1.95;;;;;;;18.72;34.35;102059.44;4998428;28;20023;-82
2023/06/03 08:50:26;;;;;;;7.07;2.25;;;;;;;18.64;34.41;102081.59;4991753;28;20105;-82
2023/06/03 08:52:52;;;;;;;4.72;2.13;;;;;;;18.66;34.14;102069.25;4992185;28;20456;-82
2023/06/03 08:55:19;;;;;;;;;;;;;;;18.61;33.77;102062.41;4993083;28;20479;-83
2023/06/03 08:58:18;;;;;;;7.25;2.15;;;;;;;18.60;34.48;102069.44;4991746;28;19968;-82
2023/06/03 09:00:44;;;;;;;5.55;2.30;;;;;;;18.67;34.24;102068.34;4980133;28;20053;-82
2023/06/03 09:03:11;;;;;;;;;;;;;;;18.63;34.60;102060.59;4992385;28;20399;-83
2023/06/03 09:05:37;;;;;;;3.40;2.10;;;;;;;18.74;34.61;102069.03;4992057;28;20429;-83
2023/06/03 09:08:04;;;;;;;;;;;;;;;18.64;34.65;102072.81;4993257;28;20027;-84
2023/06/03 09:10:31;;;;;;;6.72;2.10;;;;;;;18.86;35.59;102054.63;4991480;28;19917;-84
2023/06/03 09:12:59;;;;;;;3.55;1.98;;;;;;;19.10;34.64;102067.97;4994680;28;20019;-85
2023/06/03 09:15:24;;;;;;;5.03;2.08;;;;;;;19.30;33.56;102080.50;4993469;28;20022;-83
2023/06/03 09:17:50;;;;;;;6.40;1.90;;;;;;;19.36;33.02;102068.91;4992910;28;20041;-84
2023/06/03 09:20:15;;;;;;;4.63;1.90;;;;;;;19.40;33.18;102060.84;4995706;28;20018;-85
2023/06/03 09:22:47;;;;;;;3.93;1.87;;;;;;;19.47;32.46;102058.00;4994685;28;20065;-85
2023/06/03 09:25:16;;;;;;;4.20;1.83;;;;;;;19.45;32.64;102063.34;4995168;28;20113;-85
2023/06/03 09:27:57;;;;;;;6.95;1.90;;;;;;;19.50;32.35;102058.75;4995452;28;20085;-85
2023/06/03 09:30:22;;;;;;;2.42;1.67;;;;;;;19.18;32.95;102057.19;5002818;28;20030;-92
2023/06/03 09:32:47;;;;;;;4.17;2.00;;;;;;;19.18;32.68;102051.94;5016243;28;20093;-92
2023/06/03 09:35:28;;;;;;;7.03;2.10;;;;;;;19.27;33.37;102043.75;5016348;28;20014;-93
2023/06/03 09:37:59;;;;;;;4.35;1.92;;;;;;;19.34;33.59;102053.16;5015898;28;20029;-91
2023/06/03 09:40:42;;;;;;;3.63;1.90;;;;;;;19.24;31.86;102044.72;4995896;28;20022;-89
2023/06/03 09:43:13;;;;;;;2.55;1.85;;;;;;;19.26;31.48;102057.81;4996253;28;20065;-91
2023/06/03 09:45:38;;;;;;;2.10;1.65;;;;;;;19.45;31.83;102050.16;4995130;28;20033;-84
2023/06/03 09:48:03;;;;;;;3.17;1.60;;;;;;;19.44;28.71;102058.97;4996259;28;20059;-82
2023/06/03 09:50:30;;;;;;;3.30;1.70;;;;;;;19.66;30.29;102045.06;4995888;28;20022;-83
2023/06/03 09:52:56;;;;;;;3.72;1.80;;;;;;;19.49;28.66;102053.56;4994701;28;20050;-83
2023/06/03 09:55:29;;;;;;;2.90;1.60;;;;;;;19.69;30.59;102045.81;4995282;28;20033;-79
2023/06/03 09:58:02;;;;;;;3.83;1.90;;;;;;;20.06;29.37;102054.22;4995230;28;20054;-78
2023/06/03 10:00:29;;;;;;;3.47;1.80;;;;;;;20.23;31.20;102053.63;4994824;28;20105;-83
2023/06/03 10:03:07;;;;;;;4.18;1.60;;;;;;;20.45;29.39;102055.44;4995344;28;20057;-89
2023/06/03 10:05:33;;;;;;;2.83;1.60;;;;;;;20.54;27.83;102057.75;4995268;28;20086;-87
2023/06/03 10:07:58;;;;;;;;;;;;;;;20.15;25.87;102077.59;4995082;28;20023;-87
2023/06/03 10:10:27;;;;;;;1.97;1.70;;;;;;;20.24;27.91;102065.03;5003313;28;19917;-85
2023/06/03 10:12:52;;;;;;;1.80;1.30;;;;;;;20.41;27.86;102052.06;4994972;28;20045;-85
2023/06/03 10:15:41;;;;;;;3.67;1.83;;;;;;;20.74;26.39;102061.41;4995330;28;20026;-94
2023/06/03 10:18:07;;;;;;;2.40;1.80;;;;;;;20.76;29.08;102063.09;4996068;28;20348;-92
2023/06/03 10:20:40;;;;;;;2.83;1.60;;;;;;;20.89;25.48;102067.88;4993930;28;20070;-91
2023/06/03 10:23:07;;;;;;;2.28;1.55;;;;;;;21.00;27.36;102046.34;4995698;28;20050;-89
2023/06/03 10:25:45;;;;;;;2.72;1.63;;;;;;;20.85;26.23;102045.16;4995344;28;20085;-88
2023/06/03 10:28:12;;;;;;;2.92;1.55;;;;;;;21.08;25.63;102058.31;4995939;28;20026;-89
2023/06/03 10:30:39;;;;;;;4.65;1.50;;;;;;;20.82;26.65;102056.72;4995383;28;20085;-90
2023/06/03 10:33:08;;;;;;;2.22;1.60;;;;;;;20.80;26.47;102053.25;4995812;28;20435;-90
2023/06/03 10:35:35;;;;;;;2.75;1.70;;;;;;;20.37;27.20;102061.03;4994906;28;20018;-88
2023/06/03 10:38:02;;;;;;;3.30;1.75;;;;;;;20.70;27.69;102044.84;5001805;28;20152;-92
2023/06/03 10:40:27;;;;;;;2.92;1.45;;;;;;;20.78;26.08;102047.19;5015644;28;20101;-89
2023/06/03 10:42:54;;;;;;;1.60;1.30;;;;;;;20.49;27.04;102047.34;5014611;28;20443;-89
2023/06/03 10:45:20;;;;;;;3.33;1.52;;;;;;;20.85;29.29;102047.81;5014941;28;20114;-91
2023/06/03 10:47:48;;;;;;;1.65;1.10;;;;;;;21.34;27.83;102037.03;5013692;28;20105;-87
2023/06/03 10:50:28;;;;;;;2.67;1.50;;;;;;;21.04;25.66;102053.22;5013797;28;20069;-88
2023/06/03 10:53:30;;;;;;;1.45;1.20;;;;;;;21.14;25.74;102047.50;5009161;28;20023;-89
2023/06/03 10:56:16;;;;;;;2.05;1.45;;;;;;;21.41;26.22;102047.25;4994131;28;20034;-89
2023/06/03 10:58:47;;;;;;;1.67;1.50;;;;;;;21.77;25.67;102029.06;4994833;28;20113;-89
2023/06/03 11:01:12;;;;;;;1.77;1.40;;;;;;;22.12;25.55;102029.28;4993507;28;20042;-92
2023/06/03 11:03:52;;;;;;;2.10;1.20;;;;;;;21.81;24.57;102038.59;4993200;28;20027;-89
2023/06/03 11:06:38;;;;;;;3.47;1.40;;;;;;;21.13;24.70;102037.00;4992702;28;20487;-90
2023/06/03 11:09:08;;;;;;;2.53;1.40;;;;;;;21.21;25.73;102037.56;4993430;28;20411;-90
2023/06/03 11:11:48;;;;;;;3.20;1.20;;;;;;;21.24;24.46;102032.13;4990891;28;20026;-88
2023/06/03 11:14:25;;;;;;;2.00;1.20;;;;;;;21.40;24.80;102032.34;4992012;28;20026;-91
2023/06/03 11:16:56;;;;;;;1.67;1.33;;;;;;;21.43;23.97;102034.88;4995526;28;20042;-89
2023/06/03 11:19:35;;;;;;;2.00;1.42;;;;;;;21.22;24.20;102033.13;4992418;28;20368;-93
2023/06/03 11:22:04;;;;;;;1.95;1.23;;;;;;;21.48;24.82;102033.81;4991965;28;20022;-89
2023/06/03 11:24:42;;;;;;;2.50;1.20;;;;;;;21.63;25.90;102035.81;4993433;28;20038;-90
2023/06/03 11:27:13;;;;;;;1.88;1.15;;;;;;;21.78;25.43;102042.25;4995224;28;20053;-92
2023/06/03 11:29:56;;;;;;;1.83;1.42;;;;;;;21.47;25.14;102042.66;4994719;28;20034;-91
2023/06/03 11:32:24;;;;;;;2.03;1.30;;;;;;;21.87;25.56;102035.69;4994597;28;20026;-92